Time;durP1;ratioP1;P1;durP2;ratioP2;P2;SDS_P1;SDS_P2;PMS_P1;PMS_P2;Temp;Humidity;BMP_temperature;BMP_pressure;BME280_temperature;BME280_humidity;BME280_pressure;Samples;Min_cycle;Max_cycle;Signal;HPM_P1;HPM_P2
2021/07/23 00:00:05;;;;;;;;;17.00;12.67;;;;;;;;5039342;27;45731;-82
2021/07/23 00:02:30;;;;;;;;;15.75;15.00;;;;;;;;5051299;27;46297;-81
2021/07/23 00:04:55;;;;;;;;;14.00;12.00;;;;;;;;5041889;27;45499;-82
2021/07/23 00:07:20;;;;;;;;;13.33;11.67;;;;;;;;5026043;27;45380;-81
2021/07/23 00:09:46;;;;;;;;;13.33;13.00;;;;;;;;5071721;27;45498;-82
2021/07/23 00:12:11;;;;;;;;;11.00;11.00;;;;;;;;5054362;27;47489;-82
2021/07/23 00:14:36;;;;;;;;;11.33;11.33;;;;;;;;5059930;27;45443;-81
2021/07/23 00:17:02;;;;;;;;;15.67;13.33;;;;;;;;5052169;27;45469;-81
2021/07/23 00:19:27;;;;;;;;;13.00;10.25;;;;;;;;5052665;27;45592;-81
2021/07/23 00:21:52;;;;;;;;;12.25;10.75;;;;;;;;5031872;27;46023;-81
2021/07/23 00:24:18;;;;;;;;;12.00;11.00;;;;;;;;5027250;27;45495;-82
2021/07/23 00:26:49;;;;;;;;;12.67;10.33;;;;;;;;5028818;27;45415;-81
2021/07/23 00:29:14;;;;;;;;;15.25;11.25;;;;;;;;5034169;27;45540;-82
2021/07/23 00:31:39;;;;;;;;;15.67;13.00;;;;;;;;5030775;27;45526;-81
2021/07/23 00:34:04;;;;;;;;;15.33;12.67;;;;;;;;5051458;27;45425;-81
2021/07/23 00:36:30;;;;;;;;;16.00;11.33;;;;;;;;5025365;27;45511;-81
2021/07/23 00:38:55;;;;;;;;;13.00;12.33;;;;;;;;5051416;27;45582;-81
2021/07/23 00:41:20;;;;;;;;;13.00;11.00;;;;;;;;5056089;27;46599;-81
2021/07/23 00:43:45;;;;;;;;;12.00;12.00;;;;;;;;5030478;27;45240;-81
2021/07/23 00:46:10;;;;;;;;;10.33;10.00;;;;;;;;5040147;27;45469;-81
2021/07/23 00:48:36;;;;;;;;;16.33;11.67;;;;;;;;5085516;27;45607;-82
2021/07/23 00:51:01;;;;;;;;;13.00;12.33;;;;;;;;5060245;27;45812;-82
2021/07/23 00:53:26;;;;;;;;;12.00;11.33;;;;;;;;5031976;27;45500;-81
2021/07/23 00:55:56;;;;;;;;;14.00;12.67;;;;;;;;5020370;27;45688;-81
2021/07/23 00:58:25;;;;;;;;;13.00;13.00;;;;;;;;5021616;27;45499;-81
2021/07/23 01:00:52;;;;;;;;;11.75;11.25;;;;;;;;5072487;27;46381;-82
2021/07/23 01:03:17;;;;;;;;;14.00;10.75;;;;;;;;5031379;27;45828;-82
2021/07/23 01:05:43;;;;;;;;;13.00;12.00;;;;;;;;5071714;27;45493;-82
2021/07/23 01:08:08;;;;;;;;;15.33;10.33;;;;;;;;5037338;27;45429;-81
2021/07/23 01:10:37;;;;;;;;;13.00;10.00;;;;;;;;5029972;27;45882;-81
2021/07/23 01:13:02;;;;;;;;;14.75;13.00;;;;;;;;5060581;27;45690;-81
2021/07/23 01:15:28;;;;;;;;;13.00;12.00;;;;;;;;5053313;27;45314;-81
2021/07/23 01:17:53;;;;;;;;;12.75;11.00;;;;;;;;5063896;27;45526;-81
2021/07/23 01:20:23;;;;;;;;;16.75;11.50;;;;;;;;5042894;27;45686;-81
2021/07/23 01:22:49;;;;;;;;;13.50;13.00;;;;;;;;5029765;27;45650;-81
2021/07/23 01:25:15;;;;;;;;;10.50;10.00;;;;;;;;5031923;27;45468;-81
2021/07/23 01:27:47;;;;;;;;;10.25;10.25;;;;;;;;5053395;27;45496;-81
2021/07/23 01:30:14;;;;;;;;;14.50;11.50;;;;;;;;5085434;27;45495;-82
2021/07/23 01:32:39;;;;;;;;;12.75;11.75;;;;;;;;5040471;27;45448;-81
2021/07/23 01:35:06;;;;;;;;;12.33;11.00;;;;;;;;5071045;27;45377;-81
2021/07/23 01:37:32;;;;;;;;;15.75;10.25;;;;;;;;5031123;27;45602;-80
2021/07/23 01:39:58;;;;;;;;;9.75;9.75;;;;;;;;5023521;27;46543;-81
2021/07/23 01:42:24;;;;;;;;;14.50;13.25;;;;;;;;5061527;27;45446;-82
2021/07/23 01:44:49;;;;;;;;;11.50;10.25;;;;;;;;5037657;27;45514;-82
2021/07/23 01:47:14;;;;;;;;;10.75;10.75;;;;;;;;5041207;27;45223;-82
2021/07/23 01:49:40;;;;;;;;;15.33;12.33;;;;;;;;5030744;27;48139;-81
2021/07/23 01:52:05;;;;;;;;;11.00;10.00;;;;;;;;5024675;28;49233;-82
2021/07/23 01:54:30;;;;;;;;;14.00;10.75;;;;;;;;5080072;27;45302;-82
2021/07/23 01:56:56;;;;;;;;;12.25;10.00;;;;;;;;5047842;27;45285;-82
2021/07/23 01:59:21;;;;;;;;;11.75;11.75;;;;;;;;5051373;27;45443;-82
2021/07/23 02:01:47;;;;;;;;;11.50;11.50;;;;;;;;5028711;27;45535;-81
2021/07/23 02:04:12;;;;;;;;;17.00;11.33;;;;;;;;5035487;27;45585;-80
2021/07/23 02:06:37;;;;;;;;;10.00;10.00;;;;;;;;5028097;27;45475;-82
2021/07/23 02:09:02;;;;;;;;;11.33;8.33;;;;;;;;5053146;27;45748;-82
2021/07/23 02:11:27;;;;;;;;;15.00;10.75;;;;;;;;5026834;27;45414;-82
2021/07/23 02:13:53;;;;;;;;;11.33;11.33;;;;;;;;5037410;27;45379;-82
2021/07/23 02:16:18;;;;;;;;;14.67;12.00;;;;;;;;5044873;27;45615;-82
2021/07/23 02:18:43;;;;;;;;;9.67;8.67;;;;;;;;5056217;27;48436;-81
2021/07/23 02:21:08;;;;;;;;;15.67;12.33;;;;;;;;5023502;27;45564;-82
2021/07/23 02:23:34;;;;;;;;;11.00;10.50;;;;;;;;5089185;27;45417;-81
2021/07/23 02:25:59;;;;;;;;;10.75;8.50;;;;;;;;5029482;27;45545;-82
2021/07/23 02:28:25;;;;;;;;;13.67;11.67;;;;;;;;5043073;27;46304;-81
2021/07/23 02:30:50;;;;;;;;;16.50;13.50;;;;;;;;5031762;27;45407;-82
2021/07/23 02:33:15;;;;;;;;;12.67;12.33;;;;;;;;5031249;27;45969;-82
2021/07/23 02:35:40;;;;;;;;;17.00;14.25;;;;;;;;5030120;27;45553;-81
2021/07/23 02:38:05;;;;;;;;;14.00;12.33;;;;;;;;5044672;27;47172;-82
2021/07/23 02:40:31;;;;;;;;;12.33;10.67;;;;;;;;5030526;27;45655;-82
2021/07/23 02:42:56;;;;;;;;;12.00;11.33;;;;;;;;5041795;27;45569;-82
2021/07/23 02:45:21;;;;;;;;;11.25;11.25;;;;;;;;5072738;27;49112;-82
2021/07/23 02:47:47;;;;;;;;;15.67;12.00;;;;;;;;5029533;27;46218;-82
2021/07/23 02:50:12;;;;;;;;;12.50;10.50;;;;;;;;5042366;27;45446;-82
2021/07/23 02:52:37;;;;;;;;;13.25;11.75;;;;;;;;5047200;27;45527;-82
2021/07/23 02:55:03;;;;;;;;;15.33;12.33;;;;;;;;5078166;27;45828;-82
2021/07/23 02:57:29;;;;;;;;;16.00;12.00;;;;;;;;5026943;27;45552;-81
2021/07/23 02:59:54;;;;;;;;;13.00;13.00;;;;;;;;5029226;27;45505;-82
2021/07/23 03:02:19;;;;;;;;;15.75;13.50;;;;;;;;5036595;27;45540;-82
2021/07/23 03:04:45;;;;;;;;;18.67;14.00;;;;;;;;5022896;27;45631;-82
2021/07/23 03:07:10;;;;;;;;;13.67;12.33;;;;;;;;5036023;27;47555;-81
2021/07/23 03:09:35;;;;;;;;;15.00;11.50;;;;;;;;5048427;27;45421;-81
2021/07/23 03:12:00;;;;;;;;;15.67;13.00;;;;;;;;5050680;27;45547;-82
2021/07/23 03:14:26;;;;;;;;;12.00;12.00;;;;;;;;5065811;27;47088;-82
2021/07/23 03:16:51;;;;;;;;;13.50;11.75;;;;;;;;5022935;27;45529;-82
2021/07/23 03:19:16;;;;;;;;;18.00;13.67;;;;;;;;5036319;27;45325;-82
2021/07/23 03:21:41;;;;;;;;;18.00;15.33;;;;;;;;5042875;27;45446;-81
2021/07/23 03:24:07;;;;;;;;;16.25;11.50;;;;;;;;5103954;27;45704;-81
2021/07/23 03:26:32;;;;;;;;;14.67;11.00;;;;;;;;5034046;27;45353;-82
2021/07/23 03:28:58;;;;;;;;;14.25;12.75;;;;;;;;5055368;27;45355;-82
2021/07/23 03:31:24;;;;;;;;;18.75;14.25;;;;;;;;5028015;27;45340;-81
2021/07/23 03:33:50;;;;;;;;;16.67;13.67;;;;;;;;5034852;27;45320;-82
2021/07/23 03:36:15;;;;;;;;;13.00;13.00;;;;;;;;5026466;27;45551;-82
2021/07/23 03:38:40;;;;;;;;;14.75;12.25;;;;;;;;5033500;27;45785;-80
2021/07/23 03:41:05;;;;;;;;;19.00;16.00;;;;;;;;5023460;27;45465;-81
2021/07/23 03:43:31;;;;;;;;;14.75;12.00;;;;;;;;5044636;27;45459;-81
2021/07/23 03:45:56;;;;;;;;;22.33;13.33;;;;;;;;5066206;27;45559;-81
2021/07/23 03:48:21;;;;;;;;;17.25;14.50;;;;;;;;5077787;27;45968;-82
2021/07/23 03:50:48;;;;;;;;;13.33;13.33;;;;;;;;5029722;27;45716;-82
2021/07/23 03:53:13;;;;;;;;;17.50;13.75;;;;;;;;5028698;27;45410;-81
2021/07/23 03:55:38;;;;;;;;;14.67;13.00;;;;;;;;5026947;27;45531;-82
2021/07/23 03:58:04;;;;;;;;;19.33;13.33;;;;;;;;5042737;27;45325;-80
2021/07/23 04:00:30;;;;;;;;;17.25;14.00;;;;;;;;5068652;27;45615;-82
2021/07/23 04:02:55;;;;;;;;;20.00;14.00;;;;;;;;5040793;27;45645;-82
2021/07/23 04:05:20;;;;;;;;;15.25;13.75;;;;;;;;5055720;27;47997;-82
2021/07/23 04:07:45;;;;;;;;;16.67;14.33;;;;;;;;5045491;27;45540;-82
2021/07/23 04:10:11;;;;;;;;;14.00;13.67;;;;;;;;5035577;27;45320;-82
2021/07/23 04:12:36;;;;;;;;;17.25;14.00;;;;;;;;5027064;27;45405;-82
2021/07/23 04:15:04;;;;;;;;;22.33;13.67;;;;;;;;5055549;27;46341;-82
2021/07/23 04:17:29;;;;;;;;;16.50;13.50;;;;;;;;5052855;27;45996;-81
2021/07/23 04:19:55;;;;;;;;;13.25;12.00;;;;;;;;5066515;27;45596;-82
2021/07/23 04:22:20;;;;;;;;;19.00;15.00;;;;;;;;5039999;27;45704;-81
2021/07/23 04:24:45;;;;;;;;;17.33;14.33;;;;;;;;5026755;28;45406;-81
2021/07/23 04:27:11;;;;;;;;;16.33;13.00;;;;;;;;5030880;27;45509;-82
2021/07/23 04:29:36;;;;;;;;;14.25;13.00;;;;;;;;5077320;27;45497;-82
2021/07/23 04:32:01;;;;;;;;;15.67;14.00;;;;;;;;5063593;27;45534;-82
2021/07/23 04:34:26;;;;;;;;;20.50;16.25;;;;;;;;5071185;27;46517;-82
2021/07/23 04:36:51;;;;;;;;;17.33;16.33;;;;;;;;5026672;28;45483;-82
2021/07/23 04:39:17;;;;;;;;;17.33;16.00;;;;;;;;5028510;27;45683;-82
2021/07/23 04:41:42;;;;;;;;;17.67;16.33;;;;;;;;5055478;27;45562;-81
2021/07/23 04:44:07;;;;;;;;;16.33;16.33;;;;;;;;5070185;27;45548;-82
2021/07/23 04:46:32;;;;;;;;;16.67;14.67;;;;;;;;5032056;27;45626;-82
2021/07/23 04:48:57;;;;;;;;;16.00;13.00;;;;;;;;5047286;27;45471;-82
2021/07/23 04:51:23;;;;;;;;;16.33;15.00;;;;;;;;5072300;27;45487;-82
2021/07/23 04:53:48;;;;;;;;;16.00;13.33;;;;;;;;5035668;27;45632;-82
2021/07/23 04:56:14;;;;;;;;;18.50;15.25;;;;;;;;5030990;27;45466;-82
2021/07/23 04:58:39;;;;;;;;;21.00;18.00;;;;;;;;5036957;27;45607;-82
2021/07/23 05:01:04;;;;;;;;;18.00;15.33;;;;;;;;5029117;27;45564;-82
2021/07/23 05:03:36;;;;;;;;;16.00;15.67;;;;;;;;5025088;27;47660;-82
2021/07/23 05:06:03;;;;;;;;;17.50;14.50;;;;;;;;5047783;27;45372;-82
2021/07/23 05:08:29;;;;;;;;;16.75;14.75;;;;;;;;5031324;27;46020;-81
2021/07/23 05:10:54;;;;;;;;;15.75;15.75;;;;;;;;5026630;27;45331;-82
2021/07/23 05:13:21;;;;;;;;;20.75;16.50;;;;;;;;5024197;27;45493;-82
2021/07/23 05:15:46;;;;;;;;;16.25;13.75;;;;;;;;5030537;27;45471;-82
2021/07/23 05:18:12;;;;;;;;;17.50;15.00;;;;;;;;5023965;27;46195;-82
2021/07/23 05:20:38;;;;;;;;;16.75;15.75;;;;;;;;5032267;27;45505;-82
2021/07/23 05:23:03;;;;;;;;;13.25;12.75;;;;;;;;5024863;27;45650;-82
2021/07/23 05:25:30;;;;;;;;;14.00;13.33;;;;;;;;5028798;27;45513;-82
2021/07/23 05:27:56;;;;;;;;;15.75;14.75;;;;;;;;5025435;28;46599;-83
2021/07/23 05:30:21;;;;;;;;;16.00;12.75;;;;;;;;5057169;27;45467;-81
2021/07/23 05:32:46;;;;;;;;;20.00;17.00;;;;;;;;5037179;27;46427;-82
2021/07/23 05:35:11;;;;;;;;;18.67;14.67;;;;;;;;5023528;27;45518;-81
2021/07/23 05:37:37;;;;;;;;;17.67;13.00;;;;;;;;5026072;27;45390;-82
2021/07/23 05:40:03;;;;;;;;;17.25;15.25;;;;;;;;5028088;27;45532;-81
2021/07/23 05:42:28;;;;;;;;;16.00;12.25;;;;;;;;5026542;27;46291;-83
2021/07/23 05:44:53;;;;;;;;;17.00;14.67;;;;;;;;5031982;27;45511;-82
2021/07/23 05:47:19;;;;;;;;;15.67;13.67;;;;;;;;5033351;27;46235;-82
2021/07/23 05:49:44;;;;;;;;;14.50;14.50;;;;;;;;5023909;27;45538;-82
2021/07/23 05:52:09;;;;;;;;;22.25;17.00;;;;;;;;5020733;27;46175;-82
2021/07/23 05:54:36;;;;;;;;;18.33;15.33;;;;;;;;5031431;27;45471;-81
2021/07/23 05:57:01;;;;;;;;;20.75;17.50;;;;;;;;5028708;27;45604;-82
2021/07/23 05:59:26;;;;;;;;;16.75;12.25;;;;;;;;5034399;27;45325;-82
2021/07/23 06:01:52;;;;;;;;;16.75;15.50;;;;;;;;5030469;27;45532;-82
2021/07/23 06:04:17;;;;;;;;;23.67;19.00;;;;;;;;5031485;28;45702;-82
2021/07/23 06:06:42;;;;;;;;;19.67;16.00;;;;;;;;5029244;28;45693;-82
2021/07/23 06:09:07;;;;;;;;;20.33;17.67;;;;;;;;5021850;27;45654;-82
2021/07/23 06:11:34;;;;;;;;;21.50;17.00;;;;;;;;5033321;27;46359;-82
2021/07/23 06:13:59;;;;;;;;;20.75;18.50;;;;;;;;5016541;27;46185;-81
2021/07/23 06:16:24;;;;;;;;;16.25;15.50;;;;;;;;5032364;27;45667;-81
2021/07/23 06:18:49;;;;;;;;;19.67;18.33;;;;;;;;5025211;27;45718;-82
2021/07/23 06:21:15;;;;;;;;;18.50;17.25;;;;;;;;5027460;27;45565;-82
2021/07/23 06:23:40;;;;;;;;;20.50;17.50;;;;;;;;5031051;27;45534;-82
2021/07/23 06:26:06;;;;;;;;;21.33;19.67;;;;;;;;5033453;27;48777;-82
2021/07/23 06:28:31;;;;;;;;;17.50;14.00;;;;;;;;5033853;27;45500;-82
2021/07/23 06:31:00;;;;;;;;;18.67;17.33;;;;;;;;5031861;28;46072;-82
2021/07/23 06:33:25;;;;;;;;;21.25;17.25;;;;;;;;5029771;27;45474;-81
2021/07/23 06:35:50;;;;;;;;;20.67;15.67;;;;;;;;5034489;27;45378;-81
2021/07/23 06:38:15;;;;;;;;;20.67;17.33;;;;;;;;5037794;27;45296;-82
2021/07/23 06:40:41;;;;;;;;;19.67;17.33;;;;;;;;5033586;27;45509;-82
2021/07/23 06:43:06;;;;;;;;;18.33;14.00;;;;;;;;5032837;28;45535;-82
2021/07/23 06:45:31;;;;;;;;;22.25;18.25;;;;;;;;5021942;27;45747;-81
2021/07/23 06:47:56;;;;;;;;;18.33;16.67;;;;;;;;5029813;28;45565;-81
2021/07/23 06:50:22;;;;;;;;;19.67;18.67;;;;;;;;5036132;27;46468;-81
2021/07/23 06:52:47;;;;;;;;;21.50;19.00;;;;;;;;5032198;27;45589;-81
2021/07/23 06:55:13;;;;;;;;;20.33;17.67;;;;;;;;5032236;28;45369;-80
2021/07/23 06:57:38;;;;;;;;;21.25;18.50;;;;;;;;5035517;27;45597;-82
2021/07/23 07:00:04;;;;;;;;;20.67;15.00;;;;;;;;5005344;27;46373;-82
2021/07/23 07:02:29;;;;;;;;;15.00;15.00;;;;;;;;5040468;27;45516;-80
2021/07/23 07:04:54;;;;;;;;;20.00;14.67;;;;;;;;5064602;27;45305;-82
2021/07/23 07:07:19;;;;;;;;;17.00;16.00;;;;;;;;5062225;27;45543;-82
2021/07/23 07:09:45;;;;;;;;;18.33;14.67;;;;;;;;5032300;28;46549;-83
2021/07/23 07:12:10;;;;;;;;;14.67;13.33;;;;;;;;5028117;27;45362;-82
2021/07/23 07:14:36;;;;;;;;;21.00;16.00;;;;;;;;5043182;27;45479;-82
2021/07/23 07:17:01;;;;;;;;;19.75;18.00;;;;;;;;5031974;27;45654;-81
2021/07/23 07:19:26;;;;;;;;;17.25;16.50;;;;;;;;5033689;27;46125;-81
2021/07/23 07:21:51;;;;;;;;;19.33;16.33;;;;;;;;5032109;28;45407;-82
2021/07/23 07:24:17;;;;;;;;;23.25;19.25;;;;;;;;5029352;27;45528;-82
2021/07/23 07:26:44;;;;;;;;;20.25;16.50;;;;;;;;5032924;27;45523;-82
2021/07/23 07:29:09;;;;;;;;;19.00;19.00;;;;;;;;5033450;28;46230;-82
2021/07/23 07:31:34;;;;;;;;;22.33;18.00;;;;;;;;5036780;27;45375;-82
2021/07/23 07:33:59;;;;;;;;;19.33;19.33;;;;;;;;5034587;27;45607;-82
2021/07/23 07:36:24;;;;;;;;;19.67;17.67;;;;;;;;5035428;27;45538;-83
2021/07/23 07:38:50;;;;;;;;;21.67;18.33;;;;;;;;5031480;27;45430;-82
2021/07/23 07:41:16;;;;;;;;;15.25;15.25;;;;;;;;5017819;27;45516;-82
2021/07/23 07:43:41;;;;;;;;;19.00;19.00;;;;;;;;5037122;27;45451;-82
2021/07/23 07:46:06;;;;;;;;;17.33;17.00;;;;;;;;5033832;28;45456;-82
2021/07/23 07:48:32;;;;;;;;;21.00;17.00;;;;;;;;5033236;28;45549;-82
2021/07/23 07:50:57;;;;;;;;;19.67;18.00;;;;;;;;5029706;27;45631;-82
2021/07/23 07:53:22;;;;;;;;;19.67;17.67;;;;;;;;5025527;27;45667;-82
2021/07/23 07:55:47;;;;;;;;;21.00;19.00;;;;;;;;5034650;27;45854;-82
2021/07/23 07:58:12;;;;;;;;;20.67;19.00;;;;;;;;5016851;28;48097;-82
2021/07/23 08:00:38;;;;;;;;;22.67;19.67;;;;;;;;5084895;27;45365;-82
2021/07/23 08:03:03;;;;;;;;;20.00;18.75;;;;;;;;5033592;27;45868;-82
2021/07/23 08:05:28;;;;;;;;;22.00;17.33;;;;;;;;5034249;27;45544;-82
2021/07/23 08:07:57;;;;;;;;;22.67;21.00;;;;;;;;5015438;27;48106;-82
2021/07/23 08:10:25;;;;;;;;;22.00;19.50;;;;;;;;5035100;27;45804;-82
2021/07/23 08:12:50;;;;;;;;;20.75;17.75;;;;;;;;5031742;28;45471;-83
2021/07/23 08:15:16;;;;;;;;;19.00;18.00;;;;;;;;5019637;27;46190;-83
2021/07/23 08:17:42;;;;;;;;;24.00;19.75;;;;;;;;5018421;27;46052;-83
2021/07/23 08:20:07;;;;;;;;;23.00;18.00;;;;;;;;5034186;27;45466;-83
2021/07/23 08:22:33;;;;;;;;;18.75;18.50;;;;;;;;5030785;27;46447;-82
2021/07/23 08:24:58;;;;;;;;;21.50;19.00;;;;;;;;5039273;28;45390;-82
2021/07/23 08:27:24;;;;;;;;;19.33;17.67;;;;;;;;5032237;27;46206;-83
2021/07/23 08:29:49;;;;;;;;;20.00;16.25;;;;;;;;5040615;27;45689;-81
2021/07/23 08:32:15;;;;;;;;;20.00;15.75;;;;;;;;5038518;27;45529;-82
2021/07/23 08:34:40;;;;;;;;;18.50;18.00;;;;;;;;5034384;27;45625;-83
2021/07/23 08:37:06;;;;;;;;;18.25;17.25;;;;;;;;5033447;28;46401;-82
2021/07/23 08:39:31;;;;;;;;;39.75;31.25;;;;;;;;5031305;27;46105;-83
2021/07/23 08:41:56;;;;;;;;;31.50;28.00;;;;;;;;5036880;28;45503;-83
2021/07/23 08:44:22;;;;;;;;;29.75;28.75;;;;;;;;5036365;27;45434;-82
2021/07/23 08:46:48;;;;;;;;;32.00;29.25;;;;;;;;5035960;28;45620;-83
2021/07/23 08:49:14;;;;;;;;;61.00;47.50;;;;;;;;5034585;28;46041;-83
2021/07/23 08:51:39;;;;;;;;;68.50;52.50;;;;;;;;5034155;27;45471;-83
2021/07/23 08:54:05;;;;;;;;;24.33;21.00;;;;;;;;5030136;27;45497;-83
2021/07/23 08:56:30;;;;;;;;;49.25;40.25;;;;;;;;5042680;27;45753;-83
2021/07/23 08:58:55;;;;;;;;;29.00;24.00;;;;;;;;5018419;27;45695;-83
2021/07/23 09:01:20;;;;;;;;;27.00;24.33;;;;;;;;5019335;27;45451;-83
2021/07/23 09:03:46;;;;;;;;;42.00;35.33;;;;;;;;5034088;28;45380;-83
2021/07/23 09:06:17;;;;;;;;;29.67;28.33;;;;;;;;5029771;27;45445;-83
2021/07/23 09:09:04;;;;;;;;;22.50;20.50;;;;;;;;5034479;27;45775;-83
2021/07/23 09:11:30;;;;;;;;;26.75;22.25;;;;;;;;5037280;27;45364;-83
2021/07/23 09:14:11;;;;;;;;;23.50;20.50;;;;;;;;5018890;27;45346;-80
2021/07/23 09:16:36;;;;;;;;;21.00;18.00;;;;;;;;5033670;27;45680;-82
2021/07/23 09:19:05;;;;;;;;;23.00;22.00;;;;;;;;5034238;28;45497;-82
2021/07/23 09:21:33;;;;;;;;;20.25;18.25;;;;;;;;5032276;27;45549;-83
2021/07/23 09:23:58;;;;;;;;;23.75;21.25;;;;;;;;5031315;27;45605;-82
2021/07/23 09:26:25;;;;;;;;;24.00;21.67;;;;;;;;5036301;27;46019;-82
2021/07/23 09:28:52;;;;;;;;;20.00;20.00;;;;;;;;5018207;27;45462;-83
2021/07/23 09:31:27;;;;;;;;;19.00;18.75;;;;;;;;5103012;27;45561;-83
2021/07/23 09:33:53;;;;;;;;;26.25;20.50;;;;;;;;5024486;27;45370;-83
2021/07/23 09:36:18;;;;;;;;;23.50;19.75;;;;;;;;5030775;27;46496;-83
2021/07/23 09:38:45;;;;;;;;;23.00;21.75;;;;;;;;5034059;27;45419;-85
2021/07/23 09:41:27;;;;;;;;;23.00;20.25;;;;;;;;5031165;27;45844;-83
2021/07/23 09:44:05;;;;;;;;;19.00;17.25;;;;;;;;5021692;27;45949;-82
2021/07/23 09:46:34;;;;;;;;;22.25;20.50;;;;;;;;5024679;27;46520;-83
2021/07/23 09:49:01;;;;;;;;;26.50;22.00;;;;;;;;5064511;27;45485;-82
2021/07/23 09:51:27;;;;;;;;;22.00;18.00;;;;;;;;5043329;27;45602;-82
2021/07/23 09:53:53;;;;;;;;;19.25;17.75;;;;;;;;5037923;27;45853;-82
2021/07/23 09:56:18;;;;;;;;;18.50;18.50;;;;;;;;5025024;27;46613;-85
2021/07/23 09:58:52;;;;;;;;;23.50;21.00;;;;;;;;5068727;27;45494;-85
2021/07/23 10:01:28;;;;;;;;;21.00;19.25;;;;;;;;5025381;27;45477;-86
2021/07/23 10:03:56;;;;;;;;;19.75;18.25;;;;;;;;5051593;27;46378;-88
2021/07/23 10:06:31;;;;;;;;;20.25;19.00;;;;;;;;5066269;27;47445;-87
2021/07/23 10:09:00;;;;;;;;;22.00;17.75;;;;;;;;5036004;27;45390;-92
2021/07/23 10:11:25;;;;;;;;;20.50;20.00;;;;;;;;5042702;27;44789;-90
2021/07/23 10:13:52;;;;;;;;;22.50;18.50;;;;;;;;5034705;27;45454;-92
2021/07/23 10:16:17;;;;;;;;;21.00;18.00;;;;;;;;5028377;28;45798;-86
2021/07/23 10:18:43;;;;;;;;;21.50;15.75;;;;;;;;5036451;27;45357;-83
2021/07/23 10:21:09;;;;;;;;;21.50;16.00;;;;;;;;5036032;27;45514;-92
2021/07/23 10:23:36;;;;;;;;;15.50;15.50;;;;;;;;5041108;27;45432;-93
2021/07/23 10:26:02;;;;;;;;;15.75;13.75;;;;;;;;5026034;27;46101;-84
2021/07/23 10:28:36;;;;;;;;;18.75;15.00;;;;;;;;5024856;27;45848;-86
2021/07/23 10:31:01;;;;;;;;;17.25;16.25;;;;;;;;5030481;27;45411;-86
2021/07/23 10:33:45;;;;;;;;;15.33;15.33;;;;;;;;5036953;27;45333;-85
2021/07/23 10:36:30;;;;;;;;;17.50;15.50;;;;;;;;5030084;27;46061;-85
2021/07/23 10:39:05;;;;;;;;;17.00;17.00;;;;;;;;5020889;27;45725;-85
2021/07/23 10:41:34;;;;;;;;;15.50;15.50;;;;;;;;5013884;27;45552;-85
2021/07/23 10:43:59;;;;;;;;;18.25;14.25;;;;;;;;5015450;27;45818;-85
2021/07/23 10:46:43;;;;;;;;;15.00;15.00;;;;;;;;5012844;28;45962;-84
2021/07/23 10:49:08;;;;;;;;;16.50;14.00;;;;;;;;5011727;28;45721;-85
2021/07/23 10:51:49;;;;;;;;;16.50;15.00;;;;;;;;5014715;27;45326;-85
2021/07/23 10:54:15;;;;;;;;;14.50;14.50;;;;;;;;5028712;27;45325;-85
2021/07/23 10:57:10;;;;;;;;;19.00;16.25;;;;;;;;5027030;27;45545;-84
2021/07/23 10:59:41;;;;;;;;;15.50;14.50;;;;;;;;5025636;27;45873;-84
2021/07/23 11:02:15;;;;;;;;;16.25;14.75;;;;;;;;5015065;27;45699;-84
2021/07/23 11:04:41;;;;;;;;;13.25;12.50;;;;;;;;5018781;27;45556;-85
2021/07/23 11:07:07;;;;;;;;;19.00;16.00;;;;;;;;5023933;28;46652;-84
2021/07/23 11:09:34;;;;;;;;;18.50;15.50;;;;;;;;5026367;27;45502;-84
2021/07/23 11:12:32;;;;;;;;;17.50;14.75;;;;;;;;5024419;27;45485;-84
2021/07/23 11:15:00;;;;;;;;;18.50;15.00;;;;;;;;5049726;28;45411;-84
2021/07/23 11:17:26;;;;;;;;;18.75;17.50;;;;;;;;5050542;28;46292;-85
2021/07/23 11:19:53;;;;;;;;;22.00;19.00;;;;;;;;5048990;28;45530;-83
2021/07/23 11:22:26;;;;;;;;;19.25;19.25;;;;;;;;5050347;28;45415;-84
2021/07/23 11:24:55;;;;;;;;;18.25;18.25;;;;;;;;5048876;28;45537;-86
2021/07/23 11:27:24;;;;;;;;;17.25;15.25;;;;;;;;5049959;28;46155;-86
2021/07/23 11:29:49;;;;;;;;;17.25;17.00;;;;;;;;5049392;28;45461;-86
2021/07/23 11:32:17;;;;;;;;;17.75;15.00;;;;;;;;5048666;28;45511;-84
2021/07/23 11:34:44;;;;;;;;;18.75;16.00;;;;;;;;5047554;28;45601;-84
2021/07/23 11:37:16;;;;;;;;;19.50;16.50;;;;;;;;5047937;28;47663;-85
2021/07/23 11:39:48;;;;;;;;;18.50;15.25;;;;;;;;5034596;28;45832;-85
2021/07/23 11:42:13;;;;;;;;;18.00;16.50;;;;;;;;5045776;28;45544;-82
2021/07/23 11:44:48;;;;;;;;;19.33;14.33;;;;;;;;5050387;28;45525;-86
2021/07/23 11:47:13;;;;;;;;;16.00;15.00;;;;;;;;5046793;28;46589;-84
2021/07/23 11:49:39;;;;;;;;;19.33;17.67;;;;;;;;5041399;28;45528;-85
2021/07/23 11:52:05;;;;;;;;;19.75;14.75;;;;;;;;5000454;28;45266;-85
2021/07/23 11:54:31;;;;;;;;;17.00;15.50;;;;;;;;5007282;27;45417;-85
2021/07/23 11:57:02;;;;;;;;;13.00;13.00;;;;;;;;5008419;27;45716;-84
2021/07/23 11:59:27;;;;;;;;;17.00;15.00;;;;;;;;5001167;27;45864;-85
2021/07/23 12:01:52;;;;;;;;;14.67;14.67;;;;;;;;5006542;28;45426;-85
2021/07/23 12:04:28;;;;;;;;;16.67;13.67;;;;;;;;5006607;27;45389;-85
2021/07/23 12:06:54;;;;;;;;;15.25;12.25;;;;;;;;5000116;28;45537;-85
2021/07/23 12:09:20;;;;;;;;;15.25;14.75;;;;;;;;5003305;27;45471;-86
2021/07/23 12:11:45;;;;;;;;;17.50;15.25;;;;;;;;5007041;27;45547;-85
2021/07/23 12:14:11;;;;;;;;;15.50;13.50;;;;;;;;5010339;27;45415;-85
2021/07/23 12:16:37;;;;;;;;;15.50;13.75;;;;;;;;5001933;27;48352;-85
2021/07/23 12:19:11;;;;;;;;;14.00;12.75;;;;;;;;5003484;28;45813;-86
2021/07/23 12:21:37;;;;;;;;;15.00;12.50;;;;;;;;5005956;27;45557;-85
2021/07/23 12:24:06;;;;;;;;;14.00;14.00;;;;;;;;5003443;27;45529;-85
2021/07/23 12:26:35;;;;;;;;;12.25;12.00;;;;;;;;5011050;27;46105;-87
2021/07/23 12:29:01;;;;;;;;;12.25;12.25;;;;;;;;5002833;27;45688;-86
2021/07/23 12:31:27;;;;;;;;;11.50;11.50;;;;;;;;5009719;27;45446;-86
2021/07/23 12:34:01;;;;;;;;;13.50;13.00;;;;;;;;5002062;28;45505;-82
2021/07/23 12:36:26;;;;;;;;;13.25;13.25;;;;;;;;5002823;27;46641;-85
2021/07/23 12:39:01;;;;;;;;;14.00;12.33;;;;;;;;5007367;27;45454;-85
2021/07/23 12:41:27;;;;;;;;;9.25;7.75;;;;;;;;5019091;27;45377;-84
2021/07/23 12:44:09;;;;;;;;;10.50;10.25;;;;;;;;5030811;28;45521;-96
2021/07/23 12:46:35;;;;;;;;;12.75;11.00;;;;;;;;5023703;28;45470;-91
2021/07/23 12:49:10;;;;;;;;;12.25;11.50;;;;;;;;5024446;27;45720;-85
2021/07/23 12:51:36;;;;;;;;;14.75;13.00;;;;;;;;5022947;27;45289;-86
2021/07/23 12:54:01;;;;;;;;;13.75;12.50;;;;;;;;5040765;27;45645;-86
2021/07/23 12:56:33;;;;;;;;;12.67;10.33;;;;;;;;5024732;27;45929;-86
2021/07/23 12:58:59;;;;;;;;;14.00;12.75;;;;;;;;5022639;27;45853;-86
2021/07/23 13:01:24;;;;;;;;;15.25;12.50;;;;;;;;5021254;27;45392;-86
2021/07/23 13:03:50;;;;;;;;;13.00;12.25;;;;;;;;5024909;27;45422;-87
2021/07/23 13:06:17;;;;;;;;;13.25;12.00;;;;;;;;5014541;27;48328;-87
2021/07/23 13:08:42;;;;;;;;;17.25;14.00;;;;;;;;5015951;27;45445;-87
2021/07/23 13:11:08;;;;;;;;;13.75;13.00;;;;;;;;5027593;27;45467;-87
2021/07/23 13:13:34;;;;;;;;;15.25;13.50;;;;;;;;5030722;27;45345;-86
2021/07/23 13:15:59;;;;;;;;;12.25;12.25;;;;;;;;5026244;28;46384;-85
2021/07/23 13:18:24;;;;;;;;;11.00;11.00;;;;;;;;5028686;27;45389;-86
2021/07/23 13:20:50;;;;;;;;;11.67;11.00;;;;;;;;5023653;27;45350;-87
2021/07/23 13:23:15;;;;;;;;;14.00;11.33;;;;;;;;5026814;27;45401;-87
2021/07/23 13:25:41;;;;;;;;;12.33;10.67;;;;;;;;5023909;27;45460;-86
2021/07/23 13:28:06;;;;;;;;;10.75;10.75;;;;;;;;5024888;27;45603;-86
2021/07/23 13:30:31;;;;;;;;;10.25;10.25;;;;;;;;5028975;27;45459;-86
2021/07/23 13:32:57;;;;;;;;;15.33;14.00;;;;;;;;5025647;27;46159;-86
2021/07/23 13:35:22;;;;;;;;;10.67;10.67;;;;;;;;5026181;27;46248;-85
2021/07/23 13:37:51;;;;;;;;;13.00;12.00;;;;;;;;5020940;27;45409;-85
2021/07/23 13:40:21;;;;;;;;;13.75;11.25;;;;;;;;5015135;28;45901;-85
2021/07/23 13:42:47;;;;;;;;;13.00;11.75;;;;;;;;5020695;27;46019;-85
2021/07/23 13:45:13;;;;;;;;;13.50;11.00;;;;;;;;5015467;27;46222;-84
2021/07/23 13:47:39;;;;;;;;;13.00;13.00;;;;;;;;5020495;27;45566;-85
2021/07/23 13:50:05;;;;;;;;;12.75;12.75;;;;;;;;5004574;27;45612;-84
2021/07/23 13:52:30;;;;;;;;;13.00;13.00;;;;;;;;5024274;27;45455;-84
2021/07/23 13:54:55;;;;;;;;;11.00;11.00;;;;;;;;5035695;28;46593;-85
2021/07/23 13:57:20;;;;;;;;;11.00;11.00;;;;;;;;5022800;27;45422;-85
2021/07/23 13:59:45;;;;;;;;;12.00;11.33;;;;;;;;5022765;27;45406;-85
2021/07/23 14:02:11;;;;;;;;;12.00;11.67;;;;;;;;5020791;27;45830;-85
2021/07/23 14:04:36;;;;;;;;;14.33;12.33;;;;;;;;5022556;27;46032;-85
2021/07/23 14:07:04;;;;;;;;;12.67;12.00;;;;;;;;5025659;27;45795;-84
2021/07/23 14:09:30;;;;;;;;;11.00;10.75;;;;;;;;5029530;27;45380;-84
2021/07/23 14:11:55;;;;;;;;;13.00;12.00;;;;;;;;5022624;27;45400;-85